»·PEaware :: N700EN KSFO-KSAN

N700EN :: KSFO-KSAN

FLIGHT INFORMATION

Flight Status: Arrived
Operator: Privately registered:
United States
More flights under this callsign
Pilot: James L. (28459)
Aircraft: SOCATA TBM-900
(TBM9)
More flights by this aircraft type
Origin: KSFO San Francisco Intl
United States
Destination: KSAN San Diego Intl-Lindbergh
United States
More flights between these airports :: More routes between these airports
Route: +GAPP7 NORMM SNS J88 LAX COMIX2
File this flight plan on PilotEdge
Remarks:
Altitude:
(Current/Filed)
27,000ft
Speed:
(Current/Filed)
310kts
Departed: 19-Mar-20 07:53 AM
Arrived: 19-Mar-20 09:27 AM
Distance/Time
Traveled:
388nm/1:33
Distance/Time
To Go:
Arrived

Flight Plot

Page will automatically refresh every two minutes.

Flight plan parsing failed; only flown route is shown


Map Options




Map Legend


Flown Route
Filed Route
Departure Airport
Arrival Airport
Navaid (VOR, NDB)
Fix

Horizontal Profiles

Position Reports

Time Latitude Longitude Heading Altitude Ground
Speed
19-Mar-20 07:04 37.617383 -122.391771 30 26ft 0kts
19-Mar-20 07:05 37.617383 -122.391771 30 26ft 0kts
19-Mar-20 07:06 37.617383 -122.391771 30 26ft 0kts
19-Mar-20 07:07 37.617383 -122.391771 30 26ft 0kts
19-Mar-20 07:08 37.617383 -122.391771 30 26ft 0kts
19-Mar-20 07:09 37.617383 -122.391771 30 26ft 0kts
19-Mar-20 07:10 37.617383 -122.391771 30 26ft 0kts
19-Mar-20 07:11 37.617383 -122.391771 30 26ft 0kts
19-Mar-20 07:12 37.617383 -122.391771 30 26ft 0kts
19-Mar-20 07:13 37.617383 -122.391771 30 26ft 0kts
19-Mar-20 07:14 37.617383 -122.391771 30 26ft 0kts
19-Mar-20 07:15 37.617383 -122.391771 30 26ft 0kts
19-Mar-20 07:16 37.617383 -122.391771 30 26ft 0kts
19-Mar-20 07:17 37.617383 -122.391771 30 26ft 0kts
19-Mar-20 07:18 37.617383 -122.391771 30 26ft 0kts
19-Mar-20 07:19 37.617383 -122.391771 30 26ft 0kts
19-Mar-20 07:20 37.617383 -122.391771 30 26ft 0kts
19-Mar-20 07:21 37.617383 -122.391771 30 26ft 0kts
19-Mar-20 07:22 37.617383 -122.391771 30 26ft 0kts
19-Mar-20 07:23 37.617383 -122.391771 30 26ft 0kts
19-Mar-20 07:24 37.617383 -122.391771 30 26ft 0kts
19-Mar-20 07:33 37.617382 -122.391769 30 26ft 0kts
19-Mar-20 07:34 37.617382 -122.391769 30 26ft 0kts
19-Mar-20 07:35 37.617382 -122.391769 30 26ft 0kts
19-Mar-20 07:36 37.617382 -122.391769 30 26ft 0kts
19-Mar-20 07:37 37.617382 -122.391769 30 26ft 0kts
19-Mar-20 07:38 37.617238 -122.391876 264 26ft 0kts
19-Mar-20 07:39 37.617238 -122.391876 264 26ft 0kts
19-Mar-20 07:41 37.617238 -122.391876 264 26ft 0kts
19-Mar-20 07:42 37.617174 -122.392375 258 26ft 11kts
19-Mar-20 07:43 37.619747 -122.394607 69 25ft 15kts
19-Mar-20 07:44 37.620302 -122.392421 58 26ft 7kts
19-Mar-20 07:45 37.622485 -122.390146 74 24ft 13kts
19-Mar-20 07:46 37.621467 -122.386297 116 26ft 13kts
19-Mar-20 07:47 37.618937 -122.380381 127 26ft 21kts
19-Mar-20 07:48 37.614370 -122.381124 207 26ft 14kts
19-Mar-20 07:49 37.611027 -122.383322 211 26ft 12kts
19-Mar-20 07:50 37.608236 -122.384762 20 26ft 5kts
19-Mar-20 07:51 37.608874 -122.383524 119 26ft 0kts
19-Mar-20 07:52 37.608874 -122.383524 119 26ft 0kts
19-Mar-20 07:53 37.613231 -122.379407 27 39ft 102kts
19-Mar-20 07:54 37.649762 -122.366294 5 1818ft 149kts
19-Mar-20 07:55 37.687505 -122.363667 0 4057ft 148kts
19-Mar-20 07:56 37.693667 -122.398879 205 5991ft 160kts
19-Mar-20 07:57 37.654567 -122.421843 203 8228ft 166kts
19-Mar-20 07:58 37.612087 -122.444114 187 10305ft 173kts
19-Mar-20 07:59 37.572085 -122.415352 142 12358ft 178kts
19-Mar-20 08:00 37.531865 -122.378908 142 14575ft 188kts
19-Mar-20 08:00 37.496746 -122.347086 142 16294ft 195kts
19-Mar-20 08:02 37.444772 -122.300058 141 18464ft 205kts
19-Mar-20 08:03 37.397684 -122.257534 141 20568ft 216kts
19-Mar-20 08:03 37.356441 -122.220332 141 22307ft 223kts
19-Mar-20 08:05 37.296043 -122.165951 141 24504ft 237kts
19-Mar-20 08:06 37.242046 -122.117425 140 26582ft 245kts
19-Mar-20 08:06 37.192867 -122.073266 141 27088ft 294kts
19-Mar-20 08:07 37.121774 -122.009611 141 27064ft 333kts
19-Mar-20 08:08 37.045215 -121.941160 143 27060ft 347kts
19-Mar-20 08:09 36.966567 -121.871102 145 27060ft 353kts
19-Mar-20 08:10 36.887238 -121.800696 145 27053ft 355kts
19-Mar-20 08:11 36.808263 -121.730719 145 27055ft 354kts
19-Mar-20 08:12 36.732244 -121.653292 124 27064ft 355kts
19-Mar-20 08:13 36.664661 -121.568238 160 27061ft 351kts
19-Mar-20 08:14 36.572952 -121.574459 215 27059ft 325kts
19-Mar-20 08:15 36.527724 -121.658179 268 27059ft 294kts
19-Mar-20 08:16 36.534937 -121.754926 262 27064ft 297kts
19-Mar-20 08:17 36.480622 -121.832815 208 27064ft 329kts
19-Mar-20 08:18 36.387712 -121.825421 153 27065ft 352kts
19-Mar-20 08:19 36.330598 -121.728904 97 27066ft 349kts
19-Mar-20 08:20 36.352782 -121.619146 42 27067ft 321kts
19-Mar-20 08:21 36.424889 -121.561842 36 27060ft 317kts
19-Mar-20 08:22 36.455425 -121.458221 90 27060ft 346kts
19-Mar-20 08:23 36.408611 -121.356300 143 27064ft 353kts
19-Mar-20 08:24 36.327641 -121.283784 146 27063ft 354kts
19-Mar-20 08:25 36.245112 -121.215788 151 27066ft 353kts
19-Mar-20 08:26 36.164332 -121.144993 145 27063ft 355kts
19-Mar-20 08:27 36.084077 -121.072114 145 27059ft 355kts
19-Mar-20 08:28 36.005066 -120.999954 146 27057ft 355kts
19-Mar-20 08:29 35.926462 -120.928325 146 27058ft 355kts
19-Mar-20 08:30 35.841465 -120.876605 177 27053ft 339kts
19-Mar-20 08:31 35.757525 -120.818008 147 27055ft 354kts
19-Mar-20 08:32 35.676896 -120.748578 148 27055ft 353kts
19-Mar-20 08:33 35.595761 -120.679502 148 27057ft 353kts
19-Mar-20 08:34 35.514377 -120.610388 148 27057ft 354kts
19-Mar-20 08:35 35.433337 -120.541744 148 27067ft 354kts
19-Mar-20 08:36 35.352417 -120.473369 148 27077ft 354kts
19-Mar-20 08:37 35.270712 -120.404489 148 27079ft 354kts
19-Mar-20 08:38 35.188880 -120.335677 149 27072ft 354kts
19-Mar-20 08:39 35.107055 -120.267054 149 27072ft 353kts
19-Mar-20 08:40 35.025234 -120.198608 149 27074ft 353kts
19-Mar-20 08:41 34.941697 -120.128888 149 27078ft 353kts
19-Mar-20 08:42 34.856968 -120.058356 149 27077ft 354kts
19-Mar-20 08:43 34.771587 -119.987461 149 27081ft 354kts
19-Mar-20 08:44 34.687939 -119.918180 149 27079ft 354kts
19-Mar-20 08:45 34.604151 -119.848957 149 27077ft 354kts
19-Mar-20 08:46 34.520199 -119.779547 144 27070ft 356kts
19-Mar-20 08:47 34.467567 -119.673065 115 27076ft 361kts
19-Mar-20 08:48 34.420987 -119.561866 117 27077ft 361kts
19-Mar-20 08:49 34.373996 -119.451396 117 27081ft 361kts
19-Mar-20 08:50 34.327232 -119.341807 117 27083ft 361kts
19-Mar-20 08:51 34.279744 -119.230903 117 27081ft 361kts
19-Mar-20 08:52 34.232492 -119.120896 117 27082ft 360kts
19-Mar-20 08:53 34.185052 -119.010758 117 27086ft 360kts
19-Mar-20 08:54 34.137176 -118.899973 119 27087ft 359kts
19-Mar-20 08:55 34.089182 -118.789317 119 27084ft 355kts
19-Mar-20 08:56 34.042326 -118.681660 120 26206ft 350kts
19-Mar-20 08:57 33.995976 -118.575445 120 25103ft 349kts
19-Mar-20 08:58 33.950035 -118.470487 120 24092ft 345kts
19-Mar-20 08:59 33.894524 -118.381819 137 24089ft 318kts
19-Mar-20 09:00 33.834040 -118.303638 137 24083ft 312kts
19-Mar-20 09:01 33.774390 -118.226525 136 24084ft 310kts
19-Mar-20 09:02 33.715315 -118.148882 136 24087ft 309kts
19-Mar-20 09:03 33.656476 -118.071694 137 24076ft 307kts
19-Mar-20 09:04 33.595235 -117.991530 136 22127ft 334kts
19-Mar-20 09:05 33.531740 -117.911296 140 20779ft 320kts
19-Mar-20 09:06 33.467467 -117.836793 140 19156ft 324kts
19-Mar-20 09:07 33.404944 -117.762117 138 17895ft 315kts
19-Mar-20 09:08 33.344548 -117.688563 138 16469ft 316kts
19-Mar-20 09:09 33.286590 -117.618135 138 15435ft 308kts
19-Mar-20 09:10 33.225552 -117.557766 149 14342ft 264kts
19-Mar-20 09:11 33.164986 -117.507040 148 12628ft 282kts
19-Mar-20 09:12 33.103531 -117.455583 149 11941ft 253kts
19-Mar-20 09:13 33.047728 -117.409016 148 11881ft 241kts
19-Mar-20 09:14 32.991966 -117.362251 147 10752ft 266kts
19-Mar-20 09:15 32.933699 -117.313433 146 9391ft 276kts
19-Mar-20 09:16 32.878895 -117.267773 146 8398ft 273kts
19-Mar-20 09:17 32.828921 -117.226265 145 7209ft 278kts
19-Mar-20 09:18 32.802408 -117.169962 106 6960ft 247kts
19-Mar-20 09:19 32.789093 -117.110045 108 6735ft 190kts
19-Mar-20 09:20 32.770335 -117.042722 111 5945ft 174kts
19-Mar-20 09:21 32.741143 -116.996850 176 5261ft 217kts
19-Mar-20 09:22 32.729968 -117.044832 297 4738ft 174kts
19-Mar-20 09:23 32.740796 -117.102763 268 3199ft 168kts
19-Mar-20 09:24 32.730619 -117.145928 253 1105ft 134kts
19-Mar-20 09:25 32.730646 -117.178057 291 93ft 87kts
19-Mar-20 09:26 32.734385 -117.192930 288 16ft 26kts
19-Mar-20 09:27 32.733585 -117.193963 105 16ft 19kts
19-Mar-20 09:28 32.732082 -117.187846 105 14ft 17kts
19-Mar-20 09:29 32.733256 -117.183856 77 16ft 16kts
19-Mar-20 09:30 32.732918 -117.180074 290 19ft 4kts
19-Mar-20 09:31 32.732925 -117.180097 290 18ft 0kts

Navigation Log

Ident Type
Flight plan parsing failed, navigation log unavailable